sensor_id;sensor_type;location;lat;lon;timestamp;P1;durP1;ratioP1;P2;durP2;ratioP2
41167;SDS011;26906;45.658;9.272;2023-02-15T06:36:11;35.78;;;17.15;;
41167;SDS011;26906;45.658;9.272;2023-02-15T06:38:37;38.15;;;16.77;;
41167;SDS011;26906;45.658;9.272;2023-02-15T06:41:03;33.75;;;16.70;;
41167;SDS011;26906;45.658;9.272;2023-02-15T06:43:31;39.60;;;16.52;;
41167;SDS011;26906;45.658;9.272;2023-02-15T06:45:56;32.78;;;16.88;;
41167;SDS011;26906;45.658;9.272;2023-02-15T06:48:22;35.22;;;17.80;;
41167;SDS011;26906;45.658;9.272;2023-02-15T06:50:48;45.40;;;17.83;;
41167;SDS011;26906;45.658;9.272;2023-02-15T06:53:14;35.97;;;17.52;;
41167;SDS011;26906;45.658;9.272;2023-02-15T06:55:40;44.92;;;17.75;;
41167;SDS011;26906;45.658;9.272;2023-02-15T06:58:05;40.55;;;18.73;;
41167;SDS011;26906;45.658;9.272;2023-02-15T07:00:31;39.53;;;17.17;;
41167;SDS011;26906;45.658;9.272;2023-02-15T07:02:57;31.25;;;16.60;;
41167;SDS011;26906;45.658;9.272;2023-02-15T07:05:24;40.85;;;17.50;;
41167;SDS011;26906;45.658;9.272;2023-02-15T07:07:56;44.08;;;18.08;;
41167;SDS011;26906;45.658;9.272;2023-02-15T07:10:25;31.33;;;16.88;;
41167;SDS011;26906;45.658;9.272;2023-02-15T07:12:51;37.63;;;16.50;;
41167;SDS011;26906;45.658;9.272;2023-02-15T07:15:19;33.72;;;15.85;;
41167;SDS011;26906;45.658;9.272;2023-02-15T07:17:47;28.23;;;14.77;;
41167;SDS011;26906;45.658;9.272;2023-02-15T07:20:15;27.08;;;14.93;;
41167;SDS011;26906;45.658;9.272;2023-02-15T07:22:42;33.08;;;15.32;;
41167;SDS011;26906;45.658;9.272;2023-02-15T07:25:09;42.28;;;15.43;;
41167;SDS011;26906;45.658;9.272;2023-02-15T07:27:36;37.67;;;16.20;;
41167;SDS011;26906;45.658;9.272;2023-02-15T07:30:03;36.55;;;15.15;;
41167;SDS011;26906;45.658;9.272;2023-02-15T07:32:33;30.25;;;15.52;;
41167;SDS011;26906;45.658;9.272;2023-02-15T07:34:59;28.67;;;14.10;;
41167;SDS011;26906;45.658;9.272;2023-02-15T07:37:25;34.80;;;14.13;;
41167;SDS011;26906;45.658;9.272;2023-02-15T07:39:51;32.13;;;15.43;;
41167;SDS011;26906;45.658;9.272;2023-02-15T07:42:17;42.42;;;16.40;;
41167;SDS011;26906;45.658;9.272;2023-02-15T07:44:45;29.15;;;15.48;;
41167;SDS011;26906;45.658;9.272;2023-02-15T07:47:13;35.92;;;15.52;;
41167;SDS011;26906;45.658;9.272;2023-02-15T07:49:38;29.33;;;14.85;;
41167;SDS011;26906;45.658;9.272;2023-02-15T07:52:07;31.88;;;16.02;;
41167;SDS011;26906;45.658;9.272;2023-02-15T07:54:33;33.10;;;16.23;;
41167;SDS011;26906;45.658;9.272;2023-02-15T07:57:00;34.47;;;17.25;;
41167;SDS011;26906;45.658;9.272;2023-02-15T07:59:26;31.13;;;16.85;;
41167;SDS011;26906;45.658;9.272;2023-02-15T08:01:52;30.70;;;17.98;;
41167;SDS011;26906;45.658;9.272;2023-02-15T08:04:19;34.67;;;17.77;;
41167;SDS011;26906;45.658;9.272;2023-02-15T08:06:44;32.22;;;17.70;;
41167;SDS011;26906;45.658;9.272;2023-02-15T08:09:13;34.13;;;18.95;;
41167;SDS011;26906;45.658;9.272;2023-02-15T08:11:39;36.38;;;20.08;;
41167;SDS011;26906;45.658;9.272;2023-02-15T08:16:44;48.63;;;20.88;;
41167;SDS011;26906;45.658;9.272;2023-02-15T08:19:13;39.47;;;20.85;;
41167;SDS011;26906;45.658;9.272;2023-02-15T08:21:42;37.53;;;21.30;;
41167;SDS011;26906;45.658;9.272;2023-02-15T08:24:09;39.97;;;20.35;;
41167;SDS011;26906;45.658;9.272;2023-02-15T08:26:36;36.90;;;20.73;;
41167;SDS011;26906;45.658;9.272;2023-02-15T08:29:04;44.28;;;22.80;;
41167;SDS011;26906;45.658;9.272;2023-02-15T08:31:33;39.45;;;21.38;;
41167;SDS011;26906;45.658;9.272;2023-02-15T08:33:59;39.70;;;21.85;;
41167;SDS011;26906;45.658;9.272;2023-02-15T08:36:26;39.97;;;22.25;;
41167;SDS011;26906;45.658;9.272;2023-02-15T08:38:54;39.00;;;23.13;;
41167;SDS011;26906;45.658;9.272;2023-02-15T08:41:23;40.22;;;21.92;;
41167;SDS011;26906;45.658;9.272;2023-02-15T08:43:53;42.63;;;22.38;;
41167;SDS011;26906;45.658;9.272;2023-02-15T08:46:21;43.08;;;23.92;;
41167;SDS011;26906;45.658;9.272;2023-02-15T08:48:52;40.95;;;22.75;;
41167;SDS011;26906;45.658;9.272;2023-02-15T08:51:21;38.92;;;23.00;;
41167;SDS011;26906;45.658;9.272;2023-02-15T08:53:55;47.85;;;23.98;;
41167;SDS011;26906;45.658;9.272;2023-02-15T08:56:24;39.53;;;23.52;;
41167;SDS011;26906;45.658;9.272;2023-02-15T08:58:51;43.15;;;23.35;;
41167;SDS011;26906;45.658;9.272;2023-02-15T09:01:19;37.35;;;22.88;;
41167;SDS011;26906;45.658;9.272;2023-02-15T09:03:47;38.72;;;21.65;;
41167;SDS011;26906;45.658;9.272;2023-02-15T09:06:19;35.50;;;22.08;;
41167;SDS011;26906;45.658;9.272;2023-02-15T09:08:47;34.63;;;19.77;;
41167;SDS011;26906;45.658;9.272;2023-02-15T09:11:15;36.33;;;19.73;;
41167;SDS011;26906;45.658;9.272;2023-02-15T09:13:53;42.25;;;18.88;;
41167;SDS011;26906;45.658;9.272;2023-02-15T09:16:23;34.95;;;17.63;;
41167;SDS011;26906;45.658;9.272;2023-02-15T09:18:51;32.63;;;17.85;;
41167;SDS011;26906;45.658;9.272;2023-02-15T09:21:21;39.65;;;19.30;;
41167;SDS011;26906;45.658;9.272;2023-02-15T09:23:49;36.13;;;19.02;;
41167;SDS011;26906;45.658;9.272;2023-02-15T09:26:17;36.03;;;19.13;;
41167;SDS011;26906;45.658;9.272;2023-02-15T09:28:45;38.88;;;19.42;;
41167;SDS011;26906;45.658;9.272;2023-02-15T09:31:16;36.33;;;18.15;;
41167;SDS011;26906;45.658;9.272;2023-02-15T09:33:43;36.70;;;18.90;;
41167;SDS011;26906;45.658;9.272;2023-02-15T09:38:57;44.22;;;18.92;;
41167;SDS011;26906;45.658;9.272;2023-02-15T09:58:26;46.65;;;22.05;;
41167;SDS011;26906;45.658;9.272;2023-02-15T10:07:00;51.92;;;25.17;;
41167;SDS011;26906;45.658;9.272;2023-02-15T10:27:44;46.83;;;24.55;;
41167;SDS011;26906;45.658;9.272;2023-02-15T10:33:08;52.20;;;26.33;;
41167;SDS011;26906;45.658;9.272;2023-02-15T10:54:30;59.83;;;30.60;;
41167;SDS011;26906;45.658;9.272;2023-02-15T10:57:11;56.17;;;29.23;;
41167;SDS011;26906;45.658;9.272;2023-02-15T11:00:13;58.58;;;29.85;;
41167;SDS011;26906;45.658;9.272;2023-02-15T11:08:25;64.63;;;32.88;;
41167;SDS011;26906;45.658;9.272;2023-02-15T11:11:00;68.00;;;33.78;;
41167;SDS011;26906;45.658;9.272;2023-02-15T11:13:32;73.47;;;33.70;;
41167;SDS011;26906;45.658;9.272;2023-02-15T11:16:05;64.93;;;31.35;;
41167;SDS011;26906;45.658;9.272;2023-02-15T11:21:55;62.42;;;32.47;;
41167;SDS011;26906;45.658;9.272;2023-02-15T11:24:27;63.77;;;33.77;;
41167;SDS011;26906;45.658;9.272;2023-02-15T11:26:57;65.70;;;33.88;;
41167;SDS011;26906;45.658;9.272;2023-02-15T11:32:27;69.20;;;34.38;;
41167;SDS011;26906;45.658;9.272;2023-02-15T11:37:45;65.90;;;31.92;;
41167;SDS011;26906;45.658;9.272;2023-02-15T11:42:48;58.35;;;31.80;;
41167;SDS011;26906;45.658;9.272;2023-02-15T11:45:21;61.75;;;32.67;;
41167;SDS011;26906;45.658;9.272;2023-02-15T11:47:58;61.80;;;32.13;;
41167;SDS011;26906;45.658;9.272;2023-02-15T11:50:25;59.47;;;31.70;;
41167;SDS011;26906;45.658;9.272;2023-02-15T11:53:00;63.45;;;31.98;;
41167;SDS011;26906;45.658;9.272;2023-02-15T11:55:32;64.10;;;33.00;;
41167;SDS011;26906;45.658;9.272;2023-02-15T11:58:05;67.78;;;32.83;;
41167;SDS011;26906;45.658;9.272;2023-02-15T12:00:42;66.57;;;31.58;;
41167;SDS011;26906;45.658;9.272;2023-02-15T12:06:14;61.80;;;31.63;;
41167;SDS011;26906;45.658;9.272;2023-02-15T12:08:46;67.50;;;34.08;;
41167;SDS011;26906;45.658;9.272;2023-02-15T12:11:38;63.20;;;32.65;;
41167;SDS011;26906;45.658;9.272;2023-02-15T12:14:06;59.78;;;31.45;;
41167;SDS011;26906;45.658;9.272;2023-02-15T12:16:44;62.13;;;32.53;;
41167;SDS011;26906;45.658;9.272;2023-02-15T12:21:53;63.38;;;31.35;;
41167;SDS011;26906;45.658;9.272;2023-02-15T12:24:26;61.50;;;32.30;;
41167;SDS011;26906;45.658;9.272;2023-02-15T12:26:59;63.05;;;31.35;;
41167;SDS011;26906;45.658;9.272;2023-02-15T12:29:27;59.35;;;31.45;;
41167;SDS011;26906;45.658;9.272;2023-02-15T12:31:56;63.67;;;31.42;;
41167;SDS011;26906;45.658;9.272;2023-02-15T12:34:31;62.42;;;30.98;;
41167;SDS011;26906;45.658;9.272;2023-02-15T12:37:09;62.67;;;32.17;;
41167;SDS011;26906;45.658;9.272;2023-02-15T12:39:40;60.47;;;31.52;;
41167;SDS011;26906;45.658;9.272;2023-02-15T12:42:17;59.40;;;29.15;;
41167;SDS011;26906;45.658;9.272;2023-02-15T12:47:22;62.83;;;31.63;;
41167;SDS011;26906;45.658;9.272;2023-02-15T12:52:34;60.25;;;30.38;;
41167;SDS011;26906;45.658;9.272;2023-02-15T12:58:04;66.78;;;31.75;;
41167;SDS011;26906;45.658;9.272;2023-02-15T13:03:36;65.20;;;30.65;;
41167;SDS011;26906;45.658;9.272;2023-02-15T13:06:14;65.88;;;31.27;;
41167;SDS011;26906;45.658;9.272;2023-02-15T13:08:50;60.22;;;31.15;;
41167;SDS011;26906;45.658;9.272;2023-02-15T13:11:21;66.70;;;31.08;;
41167;SDS011;26906;45.658;9.272;2023-02-15T13:14:20;62.20;;;31.50;;
41167;SDS011;26906;45.658;9.272;2023-02-15T13:16:57;57.15;;;28.92;;
41167;SDS011;26906;45.658;9.272;2023-02-15T13:19:36;62.25;;;31.98;;
41167;SDS011;26906;45.658;9.272;2023-02-15T13:22:07;60.00;;;31.48;;
41167;SDS011;26906;45.658;9.272;2023-02-15T13:24:45;62.08;;;30.65;;
41167;SDS011;26906;45.658;9.272;2023-02-15T13:27:17;61.20;;;30.45;;
41167;SDS011;26906;45.658;9.272;2023-02-15T13:29:49;55.47;;;29.98;;
41167;SDS011;26906;45.658;9.272;2023-02-15T13:32:28;55.97;;;29.60;;
41167;SDS011;26906;45.658;9.272;2023-02-15T13:34:58;52.97;;;29.23;;
41167;SDS011;26906;45.658;9.272;2023-02-15T13:40:25;56.05;;;28.33;;
41167;SDS011;26906;45.658;9.272;2023-02-15T13:42:56;54.83;;;28.98;;
41167;SDS011;26906;45.658;9.272;2023-02-15T13:46:07;62.03;;;28.75;;
41167;SDS011;26906;45.658;9.272;2023-02-15T13:54:31;56.13;;;28.00;;
41167;SDS011;26906;45.658;9.272;2023-02-15T14:00:02;52.60;;;27.77;;
41167;SDS011;26906;45.658;9.272;2023-02-15T14:05:49;58.30;;;27.40;;
41167;SDS011;26906;45.658;9.272;2023-02-15T14:14:09;58.40;;;29.48;;
41167;SDS011;26906;45.658;9.272;2023-02-15T14:16:54;54.55;;;27.80;;
41167;SDS011;26906;45.658;9.272;2023-02-15T14:19:42;52.88;;;27.98;;
41167;SDS011;26906;45.658;9.272;2023-02-15T14:25:03;54.63;;;27.98;;
41167;SDS011;26906;45.658;9.272;2023-02-15T14:30:25;52.38;;;27.55;;
41167;SDS011;26906;45.658;9.272;2023-02-15T14:32:54;51.80;;;28.20;;
41167;SDS011;26906;45.658;9.272;2023-02-15T14:35:27;59.55;;;29.95;;
41167;SDS011;26906;45.658;9.272;2023-02-15T14:40:32;55.87;;;28.77;;
41167;SDS011;26906;45.658;9.272;2023-02-15T14:43:30;58.25;;;29.48;;
41167;SDS011;26906;45.658;9.272;2023-02-15T14:49:05;55.75;;;29.55;;
41167;SDS011;26906;45.658;9.272;2023-02-15T15:02:15;60.30;;;31.95;;
41167;SDS011;26906;45.658;9.272;2023-02-15T15:12:55;66.75;;;35.58;;
41167;SDS011;26906;45.658;9.272;2023-02-15T15:25:50;85.53;;;46.65;;
41167;SDS011;26906;45.658;9.272;2023-02-15T15:45:12;108.80;;;61.13;;
41167;SDS011;26906;45.658;9.272;2023-02-15T15:48:06;115.97;;;62.78;;
41167;SDS011;26906;45.658;9.272;2023-02-15T15:50:47;108.97;;;62.08;;
41167;SDS011;26906;45.658;9.272;2023-02-15T15:53:23;115.53;;;64.05;;
41167;SDS011;26906;45.658;9.272;2023-02-15T15:55:51;115.18;;;63.10;;
41167;SDS011;26906;45.658;9.272;2023-02-15T15:58:25;116.68;;;65.25;;
41167;SDS011;26906;45.658;9.272;2023-02-15T16:00:52;123.80;;;61.65;;
41167;SDS011;26906;45.658;9.272;2023-02-15T16:03:24;114.80;;;60.67;;
41167;SDS011;26906;45.658;9.272;2023-02-15T16:05:51;113.88;;;59.08;;
41167;SDS011;26906;45.658;9.272;2023-02-15T16:08:31;119.20;;;59.40;;
41167;SDS011;26906;45.658;9.272;2023-02-15T16:11:01;113.30;;;58.90;;
41167;SDS011;26906;45.658;9.272;2023-02-15T16:13:42;113.82;;;58.65;;
41167;SDS011;26906;45.658;9.272;2023-02-15T16:16:11;111.55;;;59.25;;
41167;SDS011;26906;45.658;9.272;2023-02-15T16:18:39;110.72;;;57.75;;
41167;SDS011;26906;45.658;9.272;2023-02-15T16:21:12;107.55;;;58.45;;
41167;SDS011;26906;45.658;9.272;2023-02-15T16:29:52;92.63;;;49.95;;
41167;SDS011;26906;45.658;9.272;2023-02-15T16:32:22;106.72;;;54.80;;
41167;SDS011;26906;45.658;9.272;2023-02-15T16:34:50;109.32;;;56.92;;
41167;SDS011;26906;45.658;9.272;2023-02-15T16:37:21;110.05;;;55.72;;
41167;SDS011;26906;45.658;9.272;2023-02-15T16:39:56;110.38;;;56.33;;
41167;SDS011;26906;45.658;9.272;2023-02-15T16:42:23;115.55;;;56.72;;
41167;SDS011;26906;45.658;9.272;2023-02-15T16:44:58;110.15;;;56.67;;
41167;SDS011;26906;45.658;9.272;2023-02-15T16:47:33;114.07;;;56.22;;
41167;SDS011;26906;45.658;9.272;2023-02-15T16:50:04;108.90;;;55.67;;
41167;SDS011;26906;45.658;9.272;2023-02-15T16:52:30;112.97;;;53.88;;
41167;SDS011;26906;45.658;9.272;2023-02-15T16:54:57;118.15;;;57.00;;
41167;SDS011;26906;45.658;9.272;2023-02-15T16:57:27;113.35;;;55.00;;
41167;SDS011;26906;45.658;9.272;2023-02-15T17:00:00;104.22;;;54.90;;
41167;SDS011;26906;45.658;9.272;2023-02-15T17:02:30;155.25;;;74.50;;
41167;SDS011;26906;45.658;9.272;2023-02-15T17:05:07;161.75;;;80.45;;
41167;SDS011;26906;45.658;9.272;2023-02-15T17:07:41;112.20;;;56.72;;
41167;SDS011;26906;45.658;9.272;2023-02-15T17:10:34;112.20;;;54.97;;
41167;SDS011;26906;45.658;9.272;2023-02-15T17:13:03;105.38;;;53.15;;
41167;SDS011;26906;45.658;9.272;2023-02-15T17:15:36;104.00;;;51.70;;
41167;SDS011;26906;45.658;9.272;2023-02-15T17:20:46;102.68;;;52.08;;
41167;SDS011;26906;45.658;9.272;2023-02-15T17:23:34;113.32;;;55.70;;
41167;SDS011;26906;45.658;9.272;2023-02-15T17:26:18;102.72;;;52.22;;
41167;SDS011;26906;45.658;9.272;2023-02-15T17:29:09;101.35;;;51.17;;
41167;SDS011;26906;45.658;9.272;2023-02-15T17:31:54;132.18;;;67.20;;
41167;SDS011;26906;45.658;9.272;2023-02-15T17:34:42;127.60;;;65.22;;
41167;SDS011;26906;45.658;9.272;2023-02-15T17:37:12;119.30;;;63.63;;
41167;SDS011;26906;45.658;9.272;2023-02-15T17:39:47;117.82;;;61.10;;
41167;SDS011;26906;45.658;9.272;2023-02-15T17:42:13;114.20;;;55.00;;
41167;SDS011;26906;45.658;9.272;2023-02-15T17:44:38;103.68;;;53.33;;
41167;SDS011;26906;45.658;9.272;2023-02-15T17:47:06;108.63;;;52.03;;
41167;SDS011;26906;45.658;9.272;2023-02-15T17:49:31;101.55;;;50.10;;
41167;SDS011;26906;45.658;9.272;2023-02-15T17:52:00;114.15;;;55.70;;
41167;SDS011;26906;45.658;9.272;2023-02-15T17:54:26;113.07;;;60.58;;
41167;SDS011;26906;45.658;9.272;2023-02-15T17:57:11;161.05;;;53.25;;
41167;SDS011;26906;45.658;9.272;2023-02-15T17:59:38;134.52;;;70.63;;
41167;SDS011;26906;45.658;9.272;2023-02-15T18:02:24;245.68;;;127.78;;
41167;SDS011;26906;45.658;9.272;2023-02-15T18:05:14;236.98;;;131.93;;
41167;SDS011;26906;45.658;9.272;2023-02-15T18:08:02;129.82;;;69.07;;
41167;SDS011;26906;45.658;9.272;2023-02-15T18:10:46;125.22;;;59.53;;
41167;SDS011;26906;45.658;9.272;2023-02-15T18:13:30;124.35;;;62.20;;
41167;SDS011;26906;45.658;9.272;2023-02-15T18:15:56;157.50;;;71.93;;
41167;SDS011;26906;45.658;9.272;2023-02-15T18:18:22;154.43;;;71.05;;
41167;SDS011;26906;45.658;9.272;2023-02-15T18:20:48;140.07;;;67.93;;
41167;SDS011;26906;45.658;9.272;2023-02-15T18:23:14;110.25;;;52.85;;
41167;SDS011;26906;45.658;9.272;2023-02-15T18:25:40;112.57;;;52.00;;
41167;SDS011;26906;45.658;9.272;2023-02-15T18:28:08;96.82;;;50.13;;
41167;SDS011;26906;45.658;9.272;2023-02-15T18:30:38;102.97;;;51.13;;
41167;SDS011;26906;45.658;9.272;2023-02-15T18:33:49;105.97;;;52.00;;
41167;SDS011;26906;45.658;9.272;2023-02-15T18:36:03;95.10;;;51.03;;
41167;SDS011;26906;45.658;9.272;2023-02-15T18:38:31;121.32;;;56.83;;
41167;SDS011;26906;45.658;9.272;2023-02-15T18:40:57;107.43;;;51.65;;
41167;SDS011;26906;45.658;9.272;2023-02-15T18:43:24;118.65;;;55.70;;
41167;SDS011;26906;45.658;9.272;2023-02-15T18:45:50;113.57;;;55.17;;
41167;SDS011;26906;45.658;9.272;2023-02-15T18:48:15;104.53;;;50.80;;
41167;SDS011;26906;45.658;9.272;2023-02-15T18:50:41;105.53;;;50.97;;
41167;SDS011;26906;45.658;9.272;2023-02-15T18:53:28;95.70;;;49.03;;
41167;SDS011;26906;45.658;9.272;2023-02-15T18:55:53;105.35;;;50.67;;
41167;SDS011;26906;45.658;9.272;2023-02-15T18:58:20;100.05;;;49.38;;
41167;SDS011;26906;45.658;9.272;2023-02-15T19:00:48;103.13;;;48.30;;
41167;SDS011;26906;45.658;9.272;2023-02-15T19:03:15;90.55;;;48.28;;
41167;SDS011;26906;45.658;9.272;2023-02-15T19:05:45;88.20;;;47.17;;
41167;SDS011;26906;45.658;9.272;2023-02-15T19:08:17;101.80;;;50.70;;
41167;SDS011;26906;45.658;9.272;2023-02-15T19:10:52;94.90;;;49.10;;
41167;SDS011;26906;45.658;9.272;2023-02-15T19:13:17;97.72;;;48.15;;
41167;SDS011;26906;45.658;9.272;2023-02-15T19:15:43;93.45;;;49.50;;
41167;SDS011;26906;45.658;9.272;2023-02-15T19:18:09;98.68;;;51.45;;
41167;SDS011;26906;45.658;9.272;2023-02-15T19:20:39;91.90;;;48.22;;
41167;SDS011;26906;45.658;9.272;2023-02-15T19:23:18;97.32;;;50.45;;
41167;SDS011;26906;45.658;9.272;2023-02-15T19:25:46;99.80;;;51.20;;
41167;SDS011;26906;45.658;9.272;2023-02-15T19:28:25;96.78;;;51.67;;
41167;SDS011;26906;45.658;9.272;2023-02-15T19:30:58;93.43;;;49.60;;
41167;SDS011;26906;45.658;9.272;2023-02-15T19:33:24;94.85;;;49.97;;
41167;SDS011;26906;45.658;9.272;2023-02-15T19:35:50;94.43;;;47.22;;
41167;SDS011;26906;45.658;9.272;2023-02-15T19:38:22;98.32;;;47.50;;
41167;SDS011;26906;45.658;9.272;2023-02-15T19:40:52;94.88;;;46.88;;
41167;SDS011;26906;45.658;9.272;2023-02-15T19:43:20;171.38;;;93.88;;
41167;SDS011;26906;45.658;9.272;2023-02-15T19:45:52;171.73;;;100.78;;
41167;SDS011;26906;45.658;9.272;2023-02-15T19:48:18;203.73;;;119.72;;
41167;SDS011;26906;45.658;9.272;2023-02-15T19:50:44;163.95;;;92.53;;
41167;SDS011;26906;45.658;9.272;2023-02-15T19:53:23;216.43;;;122.97;;
41167;SDS011;26906;45.658;9.272;2023-02-15T19:55:51;138.40;;;76.25;;
41167;SDS011;26906;45.658;9.272;2023-02-15T19:58:18;113.25;;;61.55;;
41167;SDS011;26906;45.658;9.272;2023-02-15T20:00:45;134.52;;;76.10;;
41167;SDS011;26906;45.658;9.272;2023-02-15T20:03:12;122.07;;;66.70;;
41167;SDS011;26906;45.658;9.272;2023-02-15T20:05:39;113.50;;;60.20;;
41167;SDS011;26906;45.658;9.272;2023-02-15T20:08:06;102.20;;;56.05;;
41167;SDS011;26906;45.658;9.272;2023-02-15T20:10:39;101.55;;;55.17;;
41167;SDS011;26906;45.658;9.272;2023-02-15T20:13:05;109.72;;;56.97;;
41167;SDS011;26906;45.658;9.272;2023-02-15T20:15:32;109.50;;;55.35;;
41167;SDS011;26906;45.658;9.272;2023-02-15T20:18:00;92.93;;;50.22;;
41167;SDS011;26906;45.658;9.272;2023-02-15T20:20:44;93.72;;;49.00;;
41167;SDS011;26906;45.658;9.272;2023-02-15T20:23:23;91.82;;;48.90;;
41167;SDS011;26906;45.658;9.272;2023-02-15T20:25:50;98.35;;;50.47;;
41167;SDS011;26906;45.658;9.272;2023-02-15T20:28:17;97.65;;;47.60;;
41167;SDS011;26906;45.658;9.272;2023-02-15T20:30:46;89.43;;;47.67;;
41167;SDS011;26906;45.658;9.272;2023-02-15T20:33:13;90.25;;;46.42;;
41167;SDS011;26906;45.658;9.272;2023-02-15T20:35:40;90.55;;;46.63;;
41167;SDS011;26906;45.658;9.272;2023-02-15T20:38:11;92.03;;;47.70;;
41167;SDS011;26906;45.658;9.272;2023-02-15T20:40:52;92.53;;;47.85;;
41167;SDS011;26906;45.658;9.272;2023-02-15T20:43:37;94.47;;;49.30;;
41167;SDS011;26906;45.658;9.272;2023-02-15T20:46:05;97.65;;;50.03;;
41167;SDS011;26906;45.658;9.272;2023-02-15T20:48:31;99.65;;;49.70;;
41167;SDS011;26906;45.658;9.272;2023-02-15T20:50:57;99.43;;;49.17;;
